Time;durP1;ratioP1;P1;durP2;ratioP2;P2;SDS_P1;SDS_P2;PMS_P1;PMS_P2;Temp;Humidity;BMP_temperature;BMP_pressure;BME280_temperature;BME280_humidity;BME280_pressure;Samples;Min_cycle;Max_cycle;Signal;HPM_P1;HPM_P2
2023/05/16 00:02:27;;;;;;;10.38;2.90;;;18.50;77.80;;;;;;10481054;28;20401;-24
2023/05/16 00:07:29;;;;;;;4.97;2.65;;;17.80;82.00;;;;;;10473283;28;20395;-24
2023/05/16 00:12:32;;;;;;;8.52;3.22;;;18.70;75.80;;;;;;10479174;28;20052;-24
2023/05/16 00:17:35;;;;;;;8.52;4.00;;;18.20;79.10;;;;;;10470913;28;20052;-24
2023/05/16 00:22:37;;;;;;;;;;;18.20;79.60;;;;;;10477035;28;20060;-24
2023/05/16 00:27:40;;;;;;;8.85;3.65;;;17.20;89.30;;;;;;10475228;28;19929;-23
2023/05/16 00:32:42;;;;;;;7.40;3.40;;;18.50;77.80;;;;;;10478430;28;20049;-24
2023/05/16 00:37:44;;;;;;;;;;;18.30;78.90;;;;;;10486487;28;20040;-24
2023/05/16 00:42:47;;;;;;;7.47;3.08;;;18.50;76.30;;;;;;10479026;28;19995;-24
2023/05/16 00:47:50;;;;;;;10.25;3.88;;;17.30;85.10;;;;;;10476740;28;20048;-25
2023/05/16 00:52:52;;;;;;;6.85;2.63;;;17.80;82.60;;;;;;10484819;28;20572;-24
2023/05/16 00:57:57;;;;;;;7.07;3.13;;;18.40;76.90;;;;;;10472704;28;20080;-24
2023/05/16 01:02:59;;;;;;;13.13;2.90;;;18.60;75.50;;;;;;10481194;28;20036;-24
2023/05/16 01:08:01;;;;;;;7.60;2.58;;;17.30;81.40;;;;;;10473895;28;20044;-25
2023/05/16 01:13:12;;;;;;;7.50;2.35;;;17.70;81.10;;;;;;10467471;28;20073;-23
2023/05/16 01:18:23;;;;;;;8.75;3.38;;;18.10;72.50;;;;;;10471506;28;20517;-23
2023/05/16 01:23:40;;;;;;;6.65;3.08;;;17.90;81.00;;;;;;10465823;28;20097;-24
2023/05/16 01:28:45;;;;;;;9.77;2.00;;;18.30;77.70;;;;;;10475675;28;20052;-24
2023/05/16 01:33:47;;;;;;;5.30;2.30;;;17.00;72.70;;;;;;10470888;28;20044;-24
2023/05/16 01:38:57;;;;;;;;;;;18.50;75.70;;;;;;10472495;28;20095;-24
2023/05/16 01:44:07;;;;;;;8.20;2.65;;;16.80;86.70;;;;;;10466119;28;20050;-24
2023/05/16 01:49:16;;;;;;;3.95;1.92;;;17.30;86.00;;;;;;10477412;28;20147;-24
2023/05/16 01:54:19;;;;;;;8.07;2.38;;;17.70;82.70;;;;;;10469585;28;20053;-24
2023/05/16 01:59:24;;;;;;;4.20;1.70;;;17.20;87.50;;;;;;10471576;28;20132;-22
2023/05/16 02:04:26;;;;;;;6.38;2.67;;;17.00;82.40;;;;;;10477106;28;20037;-24
2023/05/16 02:09:28;;;;;;;5.05;1.83;;;18.00;75.00;;;;;;10472148;28;20045;-24
2023/05/16 02:14:31;;;;;;;4.53;2.30;;;17.60;79.50;;;;;;10466731;28;21055;-25
2023/05/16 02:19:33;;;;;;;7.47;2.38;;;18.10;77.50;;;;;;10475970;28;20134;-23
2023/05/16 02:24:35;;;;;;;6.22;2.65;;;18.00;76.70;;;;;;10474120;28;20113;-23
2023/05/16 02:29:38;;;;;;;7.70;1.63;;;17.80;80.10;;;;;;10475524;28;20137;-24
2023/05/16 02:34:41;;;;;;;7.45;1.63;;;16.20;88.30;;;;;;10471041;28;20206;-24
2023/05/16 02:39:43;;;;;;;6.60;2.10;;;14.50;95.80;;;;;;10470965;28;20062;-26
2023/05/16 02:44:46;;;;;;;7.77;1.77;;;16.30;92.20;;;;;;10464552;28;20152;-25
2023/05/16 02:49:48;;;;;;;11.35;1.67;;;15.90;90.70;;;;;;10467630;28;20060;-25
2023/05/16 02:54:50;;;;;;;13.90;2.20;;;16.70;67.90;;;;;;10465430;28;20092;-25
2023/05/16 03:15:30;;;;;;;8.05;1.38;;;14.70;96.40;;;;;;10493839;27;20563;-25
2023/05/16 03:20:32;;;;;;;7.35;1.80;;;15.40;92.40;;;;;;10512821;28;20137;-23
2023/05/16 03:25:35;;;;;;;2.47;1.35;;;16.70;77.70;;;;;;10512112;28;20482;-22
2023/05/16 03:30:38;;;;;;;11.15;1.85;;;17.10;85.10;;;;;;10495945;28;20444;-23
2023/05/16 03:35:40;;;;;;;3.63;1.33;;;16.70;73.90;;;;;;10500788;28;20472;-22
2023/05/16 03:40:42;;;;;;;6.32;1.30;;;17.00;84.10;;;;;;10497805;28;20098;-24
2023/05/16 03:45:45;;;;;;;8.80;1.73;;;16.10;91.10;;;;;;10502702;28;20463;-24
2023/05/16 03:50:47;;;;;;;4.82;1.60;;;15.90;70.80;;;;;;10504512;28;20072;-24
2023/05/16 03:55:49;;;;;;;5.23;1.30;;;15.20;94.60;;;;;;10504056;28;20495;-24
2023/05/16 04:00:52;;;;;;;9.53;1.53;;;15.80;91.70;;;;;;10504342;28;20131;-24
2023/05/16 04:05:55;;;;;;;8.50;1.70;;;14.80;96.10;;;;;;10501315;28;20178;-24
2023/05/16 04:10:56;;;;;;;;;;;17.00;83.40;;;;;;10496186;28;20060;-23
2023/05/16 04:16:00;;;;;;;2.60;1.42;;;17.20;82.50;;;;;;10505040;28;19947;-24
2023/05/16 04:21:02;;;;;;;5.32;1.25;;;16.50;77.90;;;;;;10505157;28;20123;-24
2023/05/16 04:26:04;;;;;;;7.30;1.23;;;15.00;94.10;;;;;;10471599;28;20048;-24
2023/05/16 04:31:07;;;;;;;5.20;1.80;;;14.70;72.10;;;;;;10470465;28;20473;-24
2023/05/16 04:36:09;;;;;;;6.13;1.50;;;15.60;95.20;;;;;;10473829;28;20041;-24
2023/05/16 04:41:11;;;;;;;5.27;1.80;;;17.00;87.50;;;;;;10471438;28;20044;-31
2023/05/16 04:46:14;;;;;;;6.03;0.97;;;16.80;85.50;;;;;;10466988;28;20386;-22
2023/05/16 04:51:16;;;;;;;3.83;1.23;;;15.80;77.20;;;;;;10474059;28;20860;-21
2023/05/16 04:56:19;;;;;;;8.60;1.25;;;15.80;93.40;;;;;;10472133;28;20049;-24
2023/05/16 05:01:22;;;;;;;;;;;14.50;79.80;;;;;;10467370;28;20821;-23
2023/05/16 05:06:24;;;;;;;5.30;1.10;;;14.80;91.40;;;;;;10478953;28;19929;-23
2023/05/16 05:11:27;;;;;;;3.05;1.23;;;14.20;97.00;;;;;;10471756;28;20493;-24
2023/05/16 05:16:30;;;;;;;4.00;1.00;;;15.80;92.90;;;;;;10468706;28;20048;-24
2023/05/16 05:21:32;;;;;;;8.35;1.23;;;15.10;96.10;;;;;;10485916;28;20062;-24
2023/05/16 05:26:34;;;;;;;5.28;1.00;;;15.40;80.60;;;;;;10487754;28;20049;-23
2023/05/16 05:31:37;;;;;;;3.78;1.00;;;16.40;79.50;;;;;;10479555;28;20071;-25
2023/05/16 05:36:39;;;;;;;3.60;1.50;;;16.70;82.20;;;;;;10481962;28;20435;-25
2023/05/16 05:41:41;;;;;;;8.97;2.17;;;17.00;81.20;;;;;;10481717;28;20119;-24
2023/05/16 05:46:45;;;;;;;2.17;0.83;;;16.80;83.70;;;;;;10479484;28;20448;-25
2023/05/16 05:51:47;;;;;;;6.28;1.02;;;15.60;88.70;;;;;;10500359;28;20092;-24
2023/05/16 05:56:48;;;;;;;5.83;1.90;;;15.90;90.80;;;;;;10495165;28;20102;-24
2023/05/16 06:01:52;;;;;;;7.67;1.23;;;16.00;83.20;;;;;;10482082;28;20454;-24
2023/05/16 06:06:54;;;;;;;2.05;0.75;;;16.60;89.80;;;;;;10488250;28;20059;-24
2023/05/16 06:11:56;;;;;;;3.60;0.80;;;18.10;77.90;;;;;;10479378;28;20059;-25
2023/05/16 06:16:59;;;;;;;6.95;0.85;;;18.80;65.60;;;;;;10485541;28;20060;-25
2023/05/16 06:22:01;;;;;;;5.53;0.70;;;18.80;72.10;;;;;;10484963;28;20076;-24
2023/05/16 06:27:02;;;;;;;8.32;1.20;;;18.10;76.70;;;;;;10487744;28;20474;-25
2023/05/16 06:32:06;;;;;;;6.35;1.08;;;18.30;69.40;;;;;;10491736;28;20072;-24
2023/05/16 06:37:09;;;;;;;5.95;0.68;;;18.40;62.10;;;;;;10497974;28;20436;-24
2023/05/16 06:42:11;;;;;;;3.70;0.70;;;18.00;78.80;;;;;;10487733;28;20090;-25
2023/05/16 06:47:14;;;;;;;3.60;1.20;;;18.30;76.50;;;;;;10492873;28;20078;-24
2023/05/16 06:52:17;;;;;;;5.32;1.85;;;16.40;81.60;;;;;;10487583;28;20084;-24
2023/05/16 06:57:18;;;;;;;9.30;1.05;;;17.10;67.80;;;;;;10495707;28;20055;-24
2023/05/16 07:02:22;;;;;;;5.07;0.70;;;17.10;89.80;;;;;;10495559;28;20101;-24
2023/05/16 07:07:24;;;;;;;3.53;1.20;;;17.80;84.40;;;;;;10487038;28;20436;-24
2023/05/16 07:12:26;;;;;;;4.93;0.97;;;16.40;80.80;;;;;;10481214;28;20119;-25
2023/05/16 07:17:29;;;;;;;;;;;18.50;76.30;;;;;;10487920;28;20068;-24
2023/05/16 07:22:31;;;;;;;;;;;16.40;90.50;;;;;;10484952;28;19920;-24
2023/05/16 07:27:33;;;;;;;1.92;0.50;;;17.90;83.80;;;;;;10478454;28;19928;-24
2023/05/16 07:32:36;;;;;;;6.10;1.10;;;17.80;80.80;;;;;;10483893;28;20075;-25
2023/05/16 07:37:40;;;;;;;4.35;1.38;;;17.50;81.70;;;;;;10484822;28;20537;-26
2023/05/16 07:42:42;;;;;;;3.35;0.70;;;17.10;84.90;;;;;;10488441;28;20445;-25
2023/05/16 07:47:45;;;;;;;12.70;1.75;;;18.20;72.90;;;;;;10487869;28;20045;-24
2023/05/16 07:52:47;;;;;;;6.30;1.10;;;17.00;76.70;;;;;;10474955;28;20582;-23
2023/05/16 07:57:49;;;;;;;3.53;0.43;;;17.20;79.80;;;;;;10471541;28;20052;-23
2023/05/16 08:02:53;;;;;;;3.20;0.90;;;19.40;66.90;;;;;;10481881;28;20128;-23
2023/05/16 08:07:55;;;;;;;7.75;1.45;;;19.10;68.80;;;;;;10482904;28;20061;-22
2023/05/16 08:12:57;;;;;;;1.33;0.43;;;17.00;75.80;;;;;;10479002;28;20265;-23
2023/05/16 08:18:00;;;;;;;2.42;0.80;;;18.90;71.90;;;;;;10480944;28;20816;-24
2023/05/16 08:23:02;;;;;;;3.50;0.80;;;19.00;71.10;;;;;;10480975;28;20044;-24
2023/05/16 08:28:04;;;;;;;;;;;17.70;75.00;;;;;;10480432;28;20039;-23
2023/05/16 08:33:09;;;;;;;6.63;0.60;;;18.40;77.00;;;;;;10477364;28;19950;-24
2023/05/16 08:38:11;;;;;;;6.53;1.08;;;18.10;74.20;;;;;;10478819;28;20048;-23
2023/05/16 08:43:13;;;;;;;7.20;0.80;;;17.70;68.20;;;;;;10476440;28;20129;-23
2023/05/16 08:48:18;;;;;;;6.78;1.17;;;17.20;76.70;;;;;;10481105;28;20055;-24
2023/05/16 08:53:26;;;;;;;15.45;2.22;;;18.50;69.40;;;;;;10477543;28;20487;-23
2023/05/16 08:58:28;;;;;;;5.20;1.30;;;16.10;62.20;;;;;;10476232;28;20625;-24
2023/05/16 09:03:32;;;;;;;2.78;0.70;;;17.00;67.00;;;;;;10479996;28;20056;-24
2023/05/16 09:08:34;;;;;;;5.45;0.80;;;19.20;68.00;;;;;;10488885;28;20446;-23
2023/05/16 09:13:37;;;;;;;5.72;1.15;;;18.10;58.30;;;;;;10491441;28;20067;-24
2023/05/16 09:18:45;;;;;;;2.35;0.70;;;17.40;57.90;;;;;;10491077;28;20147;-24
2023/05/16 09:23:48;;;;;;;7.28;0.90;;;16.30;88.10;;;;;;10494711;28;20044;-24
2023/05/16 09:28:54;;;;;;;7.30;0.90;;;17.10;82.50;;;;;;10492840;28;20118;-24
2023/05/16 09:33:58;;;;;;;6.95;0.75;;;18.70;64.10;;;;;;10491116;28;20095;-23
2023/05/16 09:39:00;;;;;;;4.43;1.15;;;17.20;84.90;;;;;;10492238;28;20048;-24
2023/05/16 09:44:04;;;;;;;4.32;1.08;;;17.40;81.30;;;;;;10487855;28;20045;-26
2023/05/16 09:49:11;;;;;;;3.05;1.00;;;17.50;66.40;;;;;;10491647;28;20048;-24
2023/05/16 09:54:13;;;;;;;4.65;1.27;;;17.60;71.20;;;;;;10490731;28;20102;-24
2023/05/16 09:59:15;;;;;;;6.43;1.20;;;18.20;78.50;;;;;;10478401;28;20055;-23
2023/05/16 10:04:19;;;;;;;9.40;0.95;;;15.70;79.80;;;;;;10470731;28;20056;-24
2023/05/16 10:09:22;;;;;;;7.85;1.10;;;16.80;91.00;;;;;;10475824;28;20141;-24
2023/05/16 10:14:25;;;;;;;8.00;1.23;;;17.40;83.70;;;;;;10477491;28;20106;-23
2023/05/16 10:19:31;;;;;;;3.40;1.05;;;15.80;74.40;;;;;;10484713;28;20049;-25
2023/05/16 10:24:42;;;;;;;2.78;1.17;;;16.50;81.10;;;;;;10498086;28;20041;-25
2023/05/16 10:29:45;;;;;;;4.20;0.70;;;16.00;95.40;;;;;;10485441;28;20076;-25
2023/05/16 10:34:48;;;;;;;4.45;0.90;;;17.10;90.20;;;;;;10485703;28;20151;-25
2023/05/16 10:39:50;;;;;;;2.55;1.02;;;19.10;75.10;;;;;;10486497;28;20076;-25
2023/05/16 10:44:55;;;;;;;8.07;1.27;;;18.60;80.00;;;;;;10486520;28;20134;-24
2023/05/16 10:49:58;;;;;;;5.25;0.98;;;17.30;69.30;;;;;;10491007;28;20386;-24
2023/05/16 10:55:03;;;;;;;4.55;0.68;;;16.80;70.50;;;;;;10488098;28;20506;-24
2023/05/16 11:00:09;;;;;;;7.82;0.98;;;16.60;92.10;;;;;;10497381;28;20090;-23
2023/05/16 11:05:19;;;;;;;4.25;0.70;;;16.40;89.60;;;;;;10496408;28;20052;-24
2023/05/16 11:10:21;;;;;;;4.55;1.23;;;17.60;91.00;;;;;;10474409;28;20076;-24
2023/05/16 11:15:27;;;;;;;5.75;0.98;;;16.10;69.90;;;;;;10488667;28;20119;-25
2023/05/16 11:20:33;;;;;;;5.20;0.75;;;16.10;91.70;;;;;;10488810;28;20064;-24
2023/05/16 11:25:38;;;;;;;7.63;1.27;;;16.10;70.80;;;;;;10488694;28;20055;-23
2023/05/16 11:30:43;;;;;;;2.85;0.70;;;17.50;88.00;;;;;;10498229;28;20460;-24
2023/05/16 11:36:01;;;;;;;6.80;0.90;;;17.20;80.10;;;;;;10496288;28;20398;-22
2023/05/16 11:41:07;;;;;;;3.92;1.98;;;17.20;69.90;;;;;;10492886;28;20536;-22
2023/05/16 11:46:11;;;;;;;1.15;0.40;;;16.20;67.30;;;;;;10493507;28;20048;-23
2023/05/16 11:51:19;;;;;;;3.70;0.98;;;18.10;87.60;;;;;;10507152;28;20400;-24
2023/05/16 11:56:22;;;;;;;2.08;0.60;;;16.40;76.70;;;;;;10503640;28;20131;-22
2023/05/16 12:01:23;;;;;;;2.72;0.68;;;16.90;82.00;;;;;;10505065;28;20060;-23
2023/05/16 12:06:28;;;;;;;3.10;0.43;;;17.80;80.10;;;;;;10495711;28;20126;-23
2023/05/16 12:11:31;;;;;;;4.93;1.45;;;18.80;80.70;;;;;;10504538;28;20136;-23
2023/05/16 12:16:33;;;;;;;6.95;0.70;;;16.80;68.90;;;;;;10495985;28;20044;-23
2023/05/16 12:21:37;;;;;;;;;;;18.20;84.10;;;;;;10487769;28;20052;-24
2023/05/16 12:26:42;;;;;;;4.30;0.63;;;18.90;81.60;;;;;;10496679;28;19928;-23
2023/05/16 12:31:44;;;;;;;5.78;1.10;;;18.50;61.00;;;;;;10493547;28;20055;-23
2023/05/16 12:36:51;;;;;;;4.90;0.70;;;17.20;67.40;;;;;;10506152;28;20139;-24
2023/05/16 12:41:53;;;;;;;2.55;0.60;;;16.50;90.60;;;;;;10504307;28;20656;-25
2023/05/16 12:46:57;;;;;;;1.27;0.63;;;18.00;73.10;;;;;;10497627;28;20102;-24
2023/05/16 12:52:04;;;;;;;2.63;0.50;;;18.00;70.70;;;;;;10495842;28;20489;-24
2023/05/16 12:57:09;;;;;;;7.15;1.00;;;17.80;60.70;;;;;;10498196;28;20048;-24
2023/05/16 13:02:11;;;;;;;5.22;0.60;;;17.00;65.20;;;;;;10481755;28;20053;-24
2023/05/16 13:07:16;;;;;;;3.55;1.25;;;17.10;93.20;;;;;;10491061;28;20040;-24
2023/05/16 13:12:18;;;;;;;4.30;0.77;;;16.90;66.80;;;;;;10475519;28;20053;-24
2023/05/16 13:17:20;;;;;;;2.07;0.50;;;18.00;64.10;;;;;;10485708;28;20076;-24
2023/05/16 13:22:23;;;;;;;4.13;0.80;;;19.60;61.50;;;;;;10492622;28;20076;-24
2023/05/16 13:27:25;;;;;;;2.67;0.60;;;18.20;58.00;;;;;;10498248;28;20055;-28
2023/05/16 13:32:27;;;;;;;1.43;0.50;;;17.70;63.00;;;;;;10491409;28;20119;-24
2023/05/16 13:37:30;;;;;;;6.85;0.82;;;17.80;75.90;;;;;;10479595;28;21069;-25
2023/05/16 13:42:32;;;;;;;10.18;0.80;;;19.60;72.60;;;;;;10485686;28;20049;-25
2023/05/16 13:47:34;;;;;;;6.25;0.75;;;18.70;62.00;;;;;;10479846;28;20080;-25
2023/05/16 13:52:39;;;;;;;5.95;0.77;;;18.80;81.70;;;;;;10470148;28;20481;-24
2023/05/16 13:57:40;;;;;;;4.05;0.70;;;19.60;55.50;;;;;;10476518;28;20052;-24
2023/05/16 14:02:43;;;;;;;1.98;0.70;;;19.40;89.70;;;;;;10492397;28;21709;-26
2023/05/16 14:07:46;;;;;;;;;;;19.00;91.70;;;;;;10487419;28;20056;-24
2023/05/16 14:12:48;;;;;;;2.72;1.00;;;20.00;71.40;;;;;;10488162;28;19927;-24
2023/05/16 14:17:50;;;;;;;6.30;1.13;;;20.00;71.00;;;;;;10486534;28;20393;-24
2023/05/16 14:22:53;;;;;;;4.78;0.98;;;19.50;75.10;;;;;;10482474;28;20426;-23
2023/05/16 14:27:55;;;;;;;2.63;0.57;;;20.40;63.80;;;;;;10488911;28;20072;-24
2023/05/16 14:32:58;;;;;;;2.47;0.80;;;21.50;91.90;;;;;;10496075;28;20126;-24
2023/05/16 14:38:01;;;;;;;9.90;1.63;;;19.90;62.10;;;;;;10478463;28;20040;-24
2023/05/16 14:43:03;;;;;;;5.25;1.35;;;20.60;93.40;;;;;;10506798;28;20056;-23
2023/05/16 14:48:07;;;;;;;6.22;1.08;;;20.70;62.60;;;;;;10485071;28;20044;-24
2023/05/16 14:53:10;;;;;;;7.53;1.48;;;20.80;61.40;;;;;;10490245;28;20605;-24
2023/05/16 14:58:11;;;;;;;9.27;2.40;;;19.30;84.30;;;;;;10486951;28;20132;-25
2023/05/16 15:03:13;;;;;;;5.40;2.03;;;18.90;68.00;;;;;;10476782;28;20143;-26
2023/05/16 15:08:16;;;;;;;8.63;2.20;;;21.30;69.40;;;;;;10480223;28;20066;-24
2023/05/16 15:13:18;;;;;;;9.30;3.08;;;18.80;78.70;;;;;;10483958;28;20055;-25
2023/05/16 15:18:21;;;;;;;4.57;1.40;;;19.30;96.70;;;;;;10483005;28;20292;-24
2023/05/16 15:23:24;;;;;;;8.50;2.22;;;20.10;99.90;;;;;;10478832;28;20527;-24
2023/05/16 15:28:26;;;;;;;7.82;1.77;;;20.50;75.00;;;;;;10483120;28;20588;-24
2023/05/16 15:33:28;;;;;;;6.22;1.50;;;20.60;99.50;;;;;;10478621;28;20056;-24
2023/05/16 15:38:31;;;;;;;11.70;2.20;;;21.20;71.30;;;;;;10474866;28;20071;-23
2023/05/16 15:43:33;;;;;;;6.97;1.10;;;19.30;68.00;;;;;;10470185;28;20076;-24
2023/05/16 15:48:35;;;;;;;6.55;1.60;;;20.40;98.20;;;;;;10483496;28;20075;-24
2023/05/16 15:53:39;;;;;;;8.95;2.45;;;21.10;93.20;;;;;;10480497;28;21079;-24
2023/05/16 15:58:40;;;;;;;5.03;0.90;;;20.80;66.20;;;;;;10484437;28;20566;-24
2023/05/16 16:03:42;;;;;;;4.25;1.02;;;21.30;91.90;;;;;;10488729;28;20816;-22
2023/05/16 16:08:45;;;;;;;11.32;1.63;;;21.40;96.50;;;;;;10484618;28;20055;-24
2023/05/16 16:13:48;;;;;;;9.55;1.30;;;22.30;56.80;;;;;;10489299;28;20060;-24
2023/05/16 16:18:50;;;;;;;11.68;1.73;;;21.10;65.20;;;;;;10484874;28;20044;-24
2023/05/16 16:23:53;;;;;;;4.50;1.02;;;20.70;61.30;;;;;;10482345;28;20626;-24
2023/05/16 16:28:55;;;;;;;4.75;0.73;;;22.00;69.70;;;;;;10490047;28;20483;-24
2023/05/16 16:33:56;;;;;;;3.30;0.70;;;21.30;80.50;;;;;;10487496;28;20053;-24
2023/05/16 16:39:00;;;;;;;7.60;1.17;;;22.10;91.00;;;;;;10496999;28;20134;-24
2023/05/16 16:44:01;;;;;;;12.10;1.25;;;20.60;78.30;;;;;;10496083;28;20049;-25
2023/05/16 16:49:04;;;;;;;5.18;0.95;;;21.60;90.80;;;;;;10487062;28;20137;-24
2023/05/16 16:54:07;;;;;;;8.18;1.58;;;22.70;84.10;;;;;;10480878;28;20056;-22
2023/05/16 16:59:10;;;;;;;4.53;1.23;;;20.10;60.30;;;;;;10474281;28;20048;-25
2023/05/16 17:04:12;;;;;;;5.68;0.93;;;20.40;97.80;;;;;;10493934;28;20048;-23
2023/05/16 17:09:18;;;;;;;9.77;1.63;;;21.30;74.80;;;;;;10482817;28;20480;-23
2023/05/16 17:14:20;;;;;;;18.05;2.00;;;21.30;97.40;;;;;;10478442;28;20056;-23
2023/05/16 17:19:22;;;;;;;6.90;1.40;;;19.40;99.00;;;;;;10475962;28;20045;-24
2023/05/16 17:24:25;;;;;;;8.38;1.23;;;21.60;75.20;;;;;;10488125;28;20052;-24
2023/05/16 17:29:27;;;;;;;3.70;0.98;;;21.10;68.80;;;;;;10485514;28;20102;-24
2023/05/16 17:34:29;;;;;;;3.30;0.98;;;21.80;73.00;;;;;;10495007;28;20071;-24
2023/05/16 17:39:32;;;;;;;7.57;1.25;;;22.90;59.30;;;;;;10481259;28;20060;-23
2023/05/16 17:44:34;;;;;;;3.63;1.08;;;22.60;67.10;;;;;;10475017;28;20087;-24
2023/05/16 17:49:36;;;;;;;1.85;0.90;;;23.30;57.20;;;;;;10486221;28;20131;-25
2023/05/16 17:54:39;;;;;;;7.85;0.95;;;22.70;86.10;;;;;;10476458;28;20075;-24
2023/05/16 17:59:41;;;;;;;5.45;0.88;;;22.40;86.20;;;;;;10479856;28;20705;-24
2023/05/16 18:04:43;;;;;;;6.13;1.38;;;21.70;77.10;;;;;;10500684;28;20194;-23
2023/05/16 18:09:46;;;;;;;5.05;1.92;;;22.10;59.80;;;;;;10488603;28;20048;-23
2023/05/16 18:14:48;;;;;;;6.55;1.10;;;19.60;99.20;;;;;;10486246;28;20059;-23
2023/05/16 18:19:49;;;;;;;6.72;1.42;;;20.70;96.80;;;;;;10486954;28;20045;-24
2023/05/16 18:24:53;;;;;;;6.10;0.93;;;22.20;69.00;;;;;;10486904;28;20155;-23
2023/05/16 18:29:54;;;;;;;5.30;1.00;;;22.50;92.30;;;;;;10491833;28;20045;-24
2023/05/16 18:34:56;;;;;;;4.00;1.15;;;20.50;76.90;;;;;;10488772;28;20040;-24
2023/05/16 18:40:00;;;;;;;3.30;0.93;;;21.30;95.90;;;;;;10482803;28;20095;-24
2023/05/16 18:45:02;;;;;;;4.53;0.90;;;23.50;67.80;;;;;;10476598;28;20056;-25
2023/05/16 18:50:04;;;;;;;3.92;1.30;;;21.60;92.40;;;;;;10479533;28;20040;-23
2023/05/16 18:55:08;;;;;;;2.00;0.90;;;22.30;87.20;;;;;;10477869;28;20057;-25
2023/05/16 19:00:19;;;;;;;2.75;0.60;;;23.80;65.60;;;;;;10455906;28;20047;-24
2023/05/16 19:05:21;;;;;;;12.18;1.67;;;23.50;76.30;;;;;;10477347;28;20067;-24
2023/05/16 19:10:24;;;;;;;9.80;1.42;;;22.40;69.20;;;;;;10483881;28;20052;-24
2023/05/16 19:15:26;;;;;;;2.15;0.70;;;21.20;71.40;;;;;;10480725;28;20056;-25
2023/05/16 19:20:28;;;;;;;7.03;1.27;;;23.50;76.50;;;;;;10481005;28;20052;-24
2023/05/16 19:25:32;;;;;;;;;;;23.10;76.70;;;;;;10488082;28;20471;-24
2023/05/16 19:30:34;;;;;;;2.15;0.70;;;24.40;69.30;;;;;;10483948;28;19928;-23
2023/05/16 19:35:37;;;;;;;;;;;24.40;68.30;;;;;;10493062;28;20098;-23
2023/05/16 19:40:40;;;;;;;4.00;1.00;;;24.50;67.90;;;;;;10482138;28;20357;-24
2023/05/16 19:45:42;;;;;;;3.60;0.70;;;24.30;67.40;;;;;;10480312;28;20159;-24
2023/05/16 19:50:44;;;;;;;1.95;0.75;;;23.50;70.90;;;;;;10484815;28;20086;-24
2023/05/16 19:55:48;;;;;;;5.78;1.10;;;24.10;67.70;;;;;;10488182;28;20056;-23
2023/05/16 20:00:50;;;;;;;5.95;1.15;;;23.70;70.80;;;;;;10490033;28;20094;-24
2023/05/16 20:05:52;;;;;;;3.35;0.80;;;23.40;72.30;;;;;;10488146;28;20051;-24
2023/05/16 20:10:56;;;;;;;3.65;0.70;;;24.10;67.90;;;;;;10499338;28;20056;-24
2023/05/16 20:15:57;;;;;;;8.23;1.17;;;24.20;66.60;;;;;;10492102;28;20163;-24
2023/05/16 20:20:59;;;;;;;;;;;23.90;68.00;;;;;;10492927;28;20052;-23
2023/05/16 20:26:02;;;;;;;5.00;1.13;;;24.00;66.70;;;;;;10493539;28;20388;-24
2023/05/16 20:31:04;;;;;;;6.85;0.73;;;23.90;66.80;;;;;;10500933;28;20044;-24
2023/05/16 20:36:06;;;;;;;4.35;1.23;;;24.10;65.90;;;;;;10493891;28;20188;-24
2023/05/16 20:41:09;;;;;;;;;;;24.10;65.70;;;;;;10491898;28;20121;-24
2023/05/16 20:46:11;;;;;;;5.57;1.17;;;24.00;65.50;;;;;;10487052;28;19920;-24
2023/05/16 20:51:13;;;;;;;;;;;23.90;65.50;;;;;;10489414;28;20094;-24
2023/05/16 20:56:16;;;;;;;5.07;1.10;;;23.90;65.40;;;;;;10480318;28;19978;-24
2023/05/16 21:01:18;;;;;;;5.10;1.20;;;23.90;65.30;;;;;;10500838;28;20482;-24
2023/05/16 21:06:20;;;;;;;7.57;1.08;;;23.80;65.20;;;;;;10496388;28;20547;-24
2023/05/16 21:11:23;;;;;;;6.65;1.77;;;23.80;65.50;;;;;;10485403;28;20060;-24
2023/05/16 21:16:25;;;;;;;7.03;1.20;;;23.70;65.40;;;;;;10488836;28;20383;-24
2023/05/16 21:21:27;;;;;;;5.97;1.10;;;23.70;65.20;;;;;;10483830;28;20551;-24
2023/05/16 21:26:30;;;;;;;11.80;1.30;;;23.70;65.30;;;;;;10505652;28;20064;-25
2023/05/16 21:31:32;;;;;;;6.85;1.27;;;23.40;62.60;;;;;;10489436;28;20110;-25
2023/05/16 21:36:34;;;;;;;;;;;23.10;67.10;;;;;;10495529;28;20131;-24
2023/05/16 21:41:37;;;;;;;9.82;2.45;;;22.90;68.40;;;;;;10494340;28;19986;-24
2023/05/16 21:46:39;;;;;;;10.02;1.83;;;23.30;66.30;;;;;;10477848;28;20074;-25
2023/05/16 21:51:41;;;;;;;3.63;1.35;;;21.00;69.70;;;;;;10490045;28;20418;-25
2023/05/16 21:56:44;;;;;;;4.47;1.17;;;23.00;68.00;;;;;;10489618;28;20044;-25
2023/05/16 22:01:46;;;;;;;6.72;1.50;;;22.10;63.90;;;;;;10488085;28;20110;-24
2023/05/16 22:06:48;;;;;;;4.97;1.15;;;22.70;69.30;;;;;;10489372;28;20072;-24
2023/05/16 22:11:51;;;;;;;4.82;1.48;;;22.80;67.90;;;;;;10497349;28;20051;-24
2023/05/16 22:16:53;;;;;;;3.83;1.00;;;22.80;67.50;;;;;;10498676;28;20506;-25
2023/05/16 22:21:54;;;;;;;6.38;0.95;;;22.40;69.30;;;;;;10498553;28;20138;-24
2023/05/16 22:26:58;;;;;;;4.07;1.20;;;22.60;68.60;;;;;;10500974;28;20166;-24
2023/05/16 22:31:59;;;;;;;5.72;1.52;;;22.50;67.80;;;;;;10500207;28;20044;-22
2023/05/16 22:37:02;;;;;;;11.32;2.42;;;22.60;67.90;;;;;;10497922;28;20125;-23
2023/05/16 22:42:05;;;;;;;;;;;21.20;74.60;;;;;;10483988;28;20087;-24
2023/05/16 22:47:07;;;;;;;4.40;1.15;;;21.70;70.70;;;;;;10497420;28;19973;-24
2023/05/16 22:52:08;;;;;;;;;;;21.30;73.70;;;;;;10500673;28;20040;-24
2023/05/16 22:57:12;;;;;;;5.57;1.47;;;21.70;71.20;;;;;;10490867;28;20028;-24
2023/05/16 23:02:13;;;;;;;4.53;1.27;;;21.20;72.30;;;;;;10485856;28;20497;-23
2023/05/16 23:07:15;;;;;;;11.02;2.35;;;20.90;76.30;;;;;;10492903;28;20186;-23
2023/05/16 23:12:20;;;;;;;5.55;1.58;;;19.80;66.50;;;;;;10471836;28;20053;-24
2023/05/16 23:17:21;;;;;;;4.18;1.70;;;21.10;68.50;;;;;;10480573;28;20135;-22
2023/05/16 23:22:23;;;;;;;3.95;1.58;;;22.10;69.50;;;;;;10483899;28;20080;-24
2023/05/16 23:27:27;;;;;;;3.33;1.27;;;21.90;70.70;;;;;;10473938;28;20044;-23
2023/05/16 23:32:29;;;;;;;3.30;1.23;;;21.30;74.40;;;;;;10488922;28;20162;-23
2023/05/16 23:37:31;;;;;;;3.00;1.30;;;21.90;70.00;;;;;;10491681;28;20081;-24
2023/05/16 23:42:35;;;;;;;6.00;1.60;;;22.00;69.20;;;;;;10494653;28;20269;-23
2023/05/16 23:47:37;;;;;;;4.65;1.45;;;21.50;72.10;;;;;;10494835;28;20507;-24
2023/05/16 23:52:39;;;;;;;3.10;1.08;;;22.00;68.50;;;;;;10488811;28;20071;-24
2023/05/16 23:57:42;;;;;;;8.63;1.98;;;22.20;67.40;;;;;;10495342;28;20048;-24
